Time;durP1;ratioP1;P1;durP2;ratioP2;P2;SDS_P1;SDS_P2;PMS_P1;PMS_P2;Temp;Humidity;BMP_temperature;BMP_pressure;BME280_temperature;BME280_humidity;BME280_pressure;Samples;Min_cycle;Max_cycle;Signal;HPM_P1;HPM_P2
2022/08/08 00:00:12;;;;;;;4.50;1.00;;;;;;;;;;4979104;28;20030;-74
2022/08/08 00:02:38;;;;;;;1.70;0.90;;;;;;;;;;4979039;28;20035;-74
2022/08/08 00:05:12;;;;;;;7.60;0.82;;;;;;;;;;4978960;28;20435;-74
2022/08/08 00:07:40;;;;;;;2.55;0.93;;;;;;;;;;4979033;28;20107;-74
2022/08/08 00:10:12;;;;;;;1.85;0.82;;;;;;;;;;4978897;28;20177;-75
2022/08/08 00:12:49;;;;;;;2.58;1.00;;;;;;;;;;4978804;28;20066;-74
2022/08/08 00:15:16;;;;;;;3.38;0.70;;;;;;;;;;4978781;28;20023;-75
2022/08/08 00:17:54;;;;;;;3.10;0.70;;;;;;;;;;5062033;28;20033;-74
2022/08/08 00:20:26;;;;;;;3.92;1.20;;;;;;;;;;5079168;28;20131;-74
2022/08/08 00:22:54;;;;;;;1.15;0.80;;;;;;;;;;5079334;28;20043;-74
2022/08/08 00:25:21;;;;;;;2.85;0.90;;;;;;;;;;5079094;28;20078;-74
2022/08/08 00:27:51;;;;;;;2.63;0.98;;;;;;;;;;5079068;28;20409;-74
2022/08/08 00:30:18;;;;;;;2.05;0.70;;;;;;;;;;5061082;28;20153;-74
2022/08/08 00:32:49;;;;;;;4.40;1.00;;;;;;;;;;5079310;28;20078;-74
2022/08/08 00:35:22;;;;;;;2.25;0.90;;;;;;;;;;5060943;28;20040;-74
2022/08/08 00:37:51;;;;;;;3.47;0.82;;;;;;;;;;5078947;28;20031;-75
2022/08/08 00:40:29;;;;;;;3.45;1.42;;;;;;;;;;5078786;28;20078;-74
2022/08/08 00:43:21;;;;;;;3.45;0.80;;;;;;;;;;5078928;28;20032;-74
2022/08/08 00:45:47;;;;;;;2.20;0.90;;;;;;;;;;5078805;28;20452;-75
2022/08/08 00:48:41;;;;;;;3.17;0.90;;;;;;;;;;5078705;28;20033;-74
2022/08/08 00:51:07;;;;;;;5.10;0.98;;;;;;;;;;5078580;28;20057;-74
2022/08/08 00:53:43;;;;;;;2.25;1.13;;;;;;;;;;5078903;28;20017;-75
2022/08/08 00:56:29;;;;;;;3.25;1.00;;;;;;;;;;5078487;28;20383;-74
2022/08/08 00:58:58;;;;;;;2.05;0.75;;;;;;;;;;5017087;28;20050;-74
2022/08/08 01:01:51;;;;;;;1.85;0.90;;;;;;;;;;5016892;28;20034;-74
2022/08/08 01:04:33;;;;;;;1.10;0.73;;;;;;;;;;5017028;28;20032;-74
2022/08/08 01:07:05;;;;;;;4.15;1.02;;;;;;;;;;5016842;28;20376;-74
2022/08/08 01:09:34;;;;;;;0.93;0.70;;;;;;;;;;5016742;28;20038;-74
2022/08/08 01:12:03;;;;;;;1.00;0.70;;;;;;;;;;5016705;28;20072;-74
2022/08/08 01:14:38;;;;;;;2.55;0.93;;;;;;;;;;5016712;28;20439;-74
2022/08/08 01:17:04;;;;;;;2.60;0.90;;;;;;;;;;5000432;28;20040;-74
2022/08/08 01:19:49;;;;;;;4.85;1.00;;;;;;;;;;5000031;28;20038;-74
2022/08/08 01:22:34;;;;;;;2.47;0.85;;;;;;;;;;5016474;28;20099;-74
2022/08/08 01:25:08;;;;;;;5.68;1.70;;;;;;;;;;5000039;28;20033;-75
2022/08/08 01:27:44;;;;;;;1.42;0.95;;;;;;;;;;5016503;28;20025;-74
2022/08/08 01:30:16;;;;;;;2.70;0.90;;;;;;;;;;5016367;28;20072;-74
2022/08/08 01:32:48;;;;;;;3.80;0.85;;;;;;;;;;5016400;28;20053;-74
2022/08/08 01:35:23;;;;;;;1.98;0.82;;;;;;;;;;5027541;28;20048;-75
2022/08/08 01:38:01;;;;;;;2.60;1.00;;;;;;;;;;5077793;28;20410;-75
2022/08/08 01:40:32;;;;;;;2.95;0.93;;;;;;;;;;5077659;28;20029;-74
2022/08/08 01:43:04;;;;;;;2.23;0.90;;;;;;;;;;5077811;28;20047;-74
2022/08/08 01:45:40;;;;;;;3.35;0.90;;;;;;;;;;5077777;28;20257;-74
2022/08/08 01:48:14;;;;;;;1.33;0.70;;;;;;;;;;5077602;28;20024;-74
2022/08/08 01:50:49;;;;;;;1.33;1.00;;;;;;;;;;5077373;28;20056;-75
2022/08/08 01:53:31;;;;;;;4.72;0.80;;;;;;;;;;5077510;28;20061;-74
2022/08/08 01:55:57;;;;;;;3.67;1.20;;;;;;;;;;5077442;28;20348;-74
2022/08/08 01:58:39;;;;;;;1.05;0.80;;;;;;;;;;5077628;28;20035;-75
2022/08/08 02:01:05;;;;;;;7.03;1.27;;;;;;;;;;5077320;28;20066;-75
2022/08/08 02:03:38;;;;;;;1.40;0.65;;;;;;;;;;5077480;28;20103;-74
2022/08/08 02:06:39;;;;;;;3.30;0.80;;;;;;;;;;5077238;28;20052;-74
2022/08/08 02:09:15;;;;;;;1.40;0.93;;;;;;;;;;5015634;28;20022;-75
2022/08/08 02:11:43;;;;;;;1.73;0.75;;;;;;;;;;5015614;28;20050;-74
2022/08/08 02:14:12;;;;;;;4.63;0.85;;;;;;;;;;5015639;28;20018;-74
2022/08/08 02:16:56;;;;;;;3.35;0.77;;;;;;;;;;5015638;28;20141;-75
2022/08/08 02:19:27;;;;;;;2.33;0.98;;;;;;;;;;5015566;28;20408;-75
2022/08/08 02:24:56;;;;;;;1.48;0.80;;;;;;;;;;5015695;28;20040;-75
2022/08/08 02:27:34;;;;;;;2.15;0.90;;;;;;;;;;5015560;28;20069;-74
2022/08/08 02:30:01;;;;;;;4.70;0.95;;;;;;;;;;5015369;28;20124;-74
2022/08/08 02:32:27;;;;;;;3.05;0.80;;;;;;;;;;5015495;28;20084;-74
2022/08/08 02:35:01;;;;;;;2.67;1.17;;;;;;;;;;5015574;28;20034;-74
2022/08/08 02:37:27;;;;;;;3.22;1.10;;;;;;;;;;4999138;28;20459;-75
2022/08/08 02:40:00;;;;;;;3.58;0.90;;;;;;;;;;5015308;28;20034;-74
2022/08/08 02:42:29;;;;;;;1.83;0.98;;;;;;;;;;5030995;28;20410;-74
2022/08/08 02:45:14;;;;;;;5.75;1.45;;;;;;;;;;5076760;28;20299;-74
2022/08/08 02:47:51;;;;;;;4.50;1.58;;;;;;;;;;5076883;28;20028;-74
2022/08/08 02:50:20;;;;;;;2.53;0.98;;;;;;;;;;5076591;28;20049;-74
2022/08/08 02:53:04;;;;;;;2.55;0.88;;;;;;;;;;5076790;28;20089;-74
2022/08/08 02:55:33;;;;;;;4.10;1.00;;;;;;;;;;5076904;28;20029;-74
2022/08/08 02:58:18;;;;;;;1.25;1.00;;;;;;;;;;5059033;28;20027;-74
2022/08/08 03:01:02;;;;;;;2.97;1.02;;;;;;;;;;5076559;28;20021;-74
2022/08/08 03:03:40;;;;;;;1.23;0.82;;;;;;;;;;5076730;28;20457;-74
2022/08/08 03:06:12;;;;;;;7.68;1.20;;;;;;;;;;5076863;28;20025;-74
2022/08/08 03:08:57;;;;;;;3.85;1.15;;;;;;;;;;5076763;28;20139;-74
2022/08/08 03:11:35;;;;;;;4.47;1.10;;;;;;;;;;5076533;28;20052;-74
2022/08/08 03:14:04;;;;;;;4.00;1.13;;;;;;;;;;5076819;28;20043;-74
2022/08/08 03:16:33;;;;;;;4.03;1.00;;;;;;;;;;5076756;28;20145;-74
2022/08/08 03:19:18;;;;;;;4.00;1.30;;;;;;;;;;5076672;28;20033;-74
2022/08/08 03:21:44;;;;;;;2.55;1.00;;;;;;;;;;5077217;28;20032;-74
2022/08/08 03:24:09;;;;;;;2.75;0.80;;;;;;;;;;5062394;28;20028;-74
2022/08/08 03:26:39;;;;;;;2.80;1.00;;;;;;;;;;5080292;28;20369;-74
2022/08/08 03:29:08;;;;;;;2.38;1.00;;;;;;;;;;5080281;28;20028;-74
2022/08/08 03:34:19;;;;;;;2.05;0.98;;;;;;;;;;5080603;28;20066;-74
2022/08/08 03:36:45;;;;;;;6.07;1.17;;;;;;;;;;5080044;28;20387;-74
2022/08/08 03:39:11;;;;;;;2.65;1.00;;;;;;;;;;5080068;28;20117;-74
2022/08/08 03:41:38;;;;;;;4.85;1.02;;;;;;;;;;5080288;28;20028;-75
2022/08/08 03:44:04;;;;;;;5.57;1.33;;;;;;;;;;5080016;28;20020;-74
2022/08/08 03:46:30;;;;;;;5.22;1.02;;;;;;;;;;5079843;28;20403;-75
2022/08/08 03:48:57;;;;;;;6.82;1.30;;;;;;;;;;5079802;28;20086;-74
2022/08/08 03:51:26;;;;;;;4.28;1.25;;;;;;;;;;5079739;28;20021;-75
2022/08/08 03:53:52;;;;;;;3.45;1.70;;;;;;;;;;5079711;28;20031;-74
2022/08/08 03:56:19;;;;;;;4.00;1.05;;;;;;;;;;5061975;28;20028;-74
2022/08/08 03:58:49;;;;;;;3.95;1.10;;;;;;;;;;5079703;28;20078;-74
2022/08/08 04:01:15;;;;;;;5.55;1.17;;;;;;;;;;5079749;28;20021;-75
2022/08/08 04:03:44;;;;;;;4.63;1.10;;;;;;;;;;5079387;28;20028;-74
2022/08/08 04:06:10;;;;;;;2.70;1.02;;;;;;;;;;5079480;28;20295;-74
2022/08/08 04:08:37;;;;;;;10.50;1.52;;;;;;;;;;5079450;28;20406;-74
2022/08/08 04:11:04;;;;;;;5.97;1.10;;;;;;;;;;5079529;28;20035;-74
2022/08/08 04:13:30;;;;;;;1.73;1.13;;;;;;;;;;5079645;28;20029;-75
2022/08/08 04:15:56;;;;;;;1.67;0.90;;;;;;;;;;5079674;28;20090;-74
2022/08/08 04:18:22;;;;;;;3.83;1.30;;;;;;;;;;5079380;28;20029;-74
2022/08/08 04:20:48;;;;;;;2.63;0.90;;;;;;;;;;5079275;28;20031;-74
2022/08/08 04:23:15;;;;;;;4.93;1.33;;;;;;;;;;5079571;28;20082;-75
2022/08/08 04:25:41;;;;;;;4.78;1.20;;;;;;;;;;5079363;28;20075;-74
2022/08/08 04:28:07;;;;;;;3.33;1.33;;;;;;;;;;5079327;28;20082;-74
2022/08/08 04:30:33;;;;;;;4.03;1.40;;;;;;;;;;5079430;28;20024;-74
2022/08/08 04:33:00;;;;;;;3.97;1.52;;;;;;;;;;5078890;28;20028;-74
2022/08/08 04:35:26;;;;;;;5.00;1.45;;;;;;;;;;5079061;28;20032;-75
2022/08/08 04:37:53;;;;;;;3.28;1.52;;;;;;;;;;5079253;28;20052;-74
2022/08/08 04:40:20;;;;;;;3.05;1.15;;;;;;;;;;5078775;28;20501;-74
2022/08/08 04:42:46;;;;;;;2.75;1.27;;;;;;;;;;5061141;28;20033;-75
2022/08/08 04:45:13;;;;;;;4.00;1.50;;;;;;;;;;5078900;28;20128;-74
2022/08/08 04:47:39;;;;;;;4.15;1.30;;;;;;;;;;5078891;28;20115;-74
2022/08/08 04:50:06;;;;;;;4.90;1.13;;;;;;;;;;5078570;28;20048;-75
2022/08/08 04:52:32;;;;;;;4.40;1.13;;;;;;;;;;5078966;28;20036;-74
2022/08/08 04:54:58;;;;;;;4.57;1.30;;;;;;;;;;5078469;28;20063;-74
2022/08/08 04:57:24;;;;;;;5.43;1.45;;;;;;;;;;5078589;28;20318;-74
2022/08/08 04:59:50;;;;;;;3.90;1.17;;;;;;;;;;5078743;28;20024;-74
2022/08/08 05:02:16;;;;;;;3.13;1.00;;;;;;;;;;5078472;28;20229;-75
2022/08/08 05:04:42;;;;;;;4.38;1.20;;;;;;;;;;5060269;28;20346;-74
2022/08/08 05:07:09;;;;;;;6.53;1.67;;;;;;;;;;5060620;28;20373;-74
2022/08/08 05:09:35;;;;;;;2.90;0.88;;;;;;;;;;5078522;28;20032;-74
2022/08/08 05:12:02;;;;;;;5.13;1.52;;;;;;;;;;5078518;28;20017;-74
2022/08/08 05:14:28;;;;;;;5.82;1.60;;;;;;;;;;5078368;28;20025;-75
2022/08/08 05:16:55;;;;;;;5.30;1.35;;;;;;;;;;5078365;28;20032;-74
2022/08/08 05:19:21;;;;;;;6.90;1.15;;;;;;;;;;5078273;28;20410;-74
2022/08/08 05:21:48;;;;;;;2.13;1.00;;;;;;;;;;5078038;28;20414;-74
2022/08/08 05:24:14;;;;;;;3.70;1.42;;;;;;;;;;5078123;28;20099;-74
2022/08/08 05:26:41;;;;;;;3.42;0.98;;;;;;;;;;5077977;28;20021;-74
2022/08/08 05:29:07;;;;;;;3.85;1.08;;;;;;;;;;5078096;28;20067;-74
2022/08/08 05:31:34;;;;;;;5.60;1.58;;;;;;;;;;5078026;28;20123;-74
2022/08/08 05:34:00;;;;;;;3.50;1.05;;;;;;;;;;5078026;28;20055;-74
2022/08/08 05:36:28;;;;;;;2.00;0.90;;;;;;;;;;5077947;28;20024;-74
2022/08/08 05:38:56;;;;;;;2.63;0.88;;;;;;;;;;5078051;28;20025;-74
2022/08/08 05:41:24;;;;;;;4.13;0.90;;;;;;;;;;5077834;28;20314;-74
2022/08/08 05:43:54;;;;;;;4.88;1.20;;;;;;;;;;5077608;28;20032;-74
2022/08/08 05:46:21;;;;;;;2.63;1.13;;;;;;;;;;5077134;28;20043;-74
2022/08/08 05:48:47;;;;;;;6.40;1.30;;;;;;;;;;5060108;28;20032;-74
2022/08/08 05:51:13;;;;;;;4.75;1.17;;;;;;;;;;5077219;28;20045;-74
2022/08/08 05:53:39;;;;;;;4.35;1.35;;;;;;;;;;5077290;28;20111;-75
2022/08/08 06:44:17;;;;;;;9.75;1.83;;;;;;;;;;5074405;28;20704;-74
2022/08/08 06:46:44;;;;;;;3.85;1.80;;;;;;;;;;5074344;28;20029;-74
2022/08/08 06:49:11;;;;;;;8.57;2.03;;;;;;;;;;5074425;28;20020;-74
2022/08/08 06:51:37;;;;;;;5.82;2.03;;;;;;;;;;5074212;28;20029;-74
2022/08/08 06:54:03;;;;;;;10.07;2.33;;;;;;;;;;5074127;28;20029;-73
2022/08/08 06:56:29;;;;;;;7.38;1.50;;;;;;;;;;5074113;28;20315;-74
2022/08/08 06:58:55;;;;;;;6.38;1.85;;;;;;;;;;5073126;28;20108;-74
2022/08/08 07:01:24;;;;;;;7.63;1.65;;;;;;;;;;5074134;28;20032;-74
2022/08/08 07:04:23;;;;;;;6.13;1.85;;;;;;;;;;5072914;28;20052;-74
2022/08/08 07:06:56;;;;;;;9.70;1.88;;;;;;;;;;5072262;28;20426;-73
2022/08/08 07:09:27;;;;;;;17.05;2.15;;;;;;;;;;5072148;28;20037;-74
2022/08/08 07:11:54;;;;;;;10.43;1.60;;;;;;;;;;5072031;28;20468;-74
2022/08/08 07:14:32;;;;;;;6.72;1.45;;;;;;;;;;5055270;28;20422;-74
2022/08/08 07:16:58;;;;;;;9.18;1.83;;;;;;;;;;5071873;28;20449;-74
2022/08/08 07:19:33;;;;;;;4.55;1.50;;;;;;;;;;5071909;28;20065;-74
2022/08/08 07:22:04;;;;;;;9.85;2.10;;;;;;;;;;5071634;28;20040;-74
2022/08/08 07:25:02;;;;;;;7.75;1.67;;;;;;;;;;5071777;28;20036;-74
2022/08/08 07:27:31;;;;;;;6.20;1.92;;;;;;;;;;4992463;28;20074;-74
2022/08/08 07:29:59;;;;;;;5.15;1.50;;;;;;;;;;4992566;28;20034;-73
2022/08/08 07:32:25;;;;;;;6.43;1.60;;;;;;;;;;4992049;28;20066;-74
2022/08/08 07:34:52;;;;;;;7.32;2.25;;;;;;;;;;4992497;28;20435;-73
2022/08/08 07:37:22;;;;;;;6.85;1.70;;;;;;;;;;4992420;28;20382;-74
2022/08/08 07:39:48;;;;;;;4.28;2.00;;;;;;;;;;4991976;28;20471;-74
2022/08/08 07:42:16;;;;;;;11.73;1.60;;;;;;;;;;5000934;28;20054;-74
2022/08/08 07:44:42;;;;;;;3.85;1.58;;;;;;;;;;5011815;28;20040;-74
2022/08/08 07:47:09;;;;;;;5.45;1.50;;;;;;;;;;5011813;28;20026;-74
2022/08/08 07:49:36;;;;;;;3.58;1.40;;;;;;;;;;5011808;28;20026;-74
2022/08/08 07:52:03;;;;;;;6.47;1.70;;;;;;;;;;5011846;28;20092;-74
2022/08/08 07:54:32;;;;;;;6.63;1.85;;;;;;;;;;5004520;28;20141;-74
2022/08/08 07:57:16;;;;;;;8.32;1.85;;;;;;;;;;4998438;28;20157;-74
2022/08/08 07:59:53;;;;;;;6.55;1.88;;;;;;;;;;4998604;28;20045;-74
2022/08/08 08:02:22;;;;;;;7.82;2.10;;;;;;;;;;4998424;28;20033;-74
2022/08/08 08:04:51;;;;;;;8.05;2.03;;;;;;;;;;5055477;28;20033;-74
2022/08/08 08:07:18;;;;;;;15.25;9.50;;;;;;;;;;5058550;28;20441;-74
2022/08/08 08:09:44;;;;;;;8.30;2.50;;;;;;;;;;5059359;28;20029;-74
2022/08/08 08:12:13;;;;;;;3.28;2.00;;;;;;;;;;5059607;28;20059;-74
2022/08/08 08:14:42;;;;;;;6.30;1.50;;;;;;;;;;5059656;28;20148;-74
2022/08/08 08:17:09;;;;;;;8.75;2.35;;;;;;;;;;5059515;28;20040;-74
2022/08/08 08:19:36;;;;;;;4.03;1.98;;;;;;;;;;5059651;28;20063;-74
2022/08/08 08:22:02;;;;;;;2.70;1.80;;;;;;;;;;5059321;28;20052;-75
2022/08/08 08:24:31;;;;;;;5.68;2.35;;;;;;;;;;5059066;28;20411;-74
2022/08/08 08:26:57;;;;;;;3.30;2.08;;;;;;;;;;5059307;28;20033;-74
2022/08/08 08:29:26;;;;;;;9.68;2.08;;;;;;;;;;5059331;28;20036;-74
2022/08/08 08:31:52;;;;;;;7.18;2.17;;;;;;;;;;5059175;28;20095;-74
2022/08/08 08:34:18;;;;;;;7.55;2.20;;;;;;;;;;5052422;28;20021;-74
2022/08/08 08:36:44;;;;;;;4.25;2.05;;;;;;;;;;5041524;28;20022;-74
2022/08/08 08:39:11;;;;;;;4.15;2.08;;;;;;;;;;5039055;28;20049;-74
2022/08/08 08:41:38;;;;;;;7.03;2.08;;;;;;;;;;5039161;28;20100;-74
2022/08/08 08:44:04;;;;;;;5.40;1.88;;;;;;;;;;5038726;28;20046;-74
2022/08/08 08:46:30;;;;;;;4.47;2.10;;;;;;;;;;5036918;28;20025;-74
2022/08/08 08:48:59;;;;;;;4.97;2.38;;;;;;;;;;5037963;28;20030;-74
2022/08/08 08:51:29;;;;;;;3.55;2.15;;;;;;;;;;5038685;28;20028;-74
2022/08/08 08:53:55;;;;;;;4.15;2.30;;;;;;;;;;5038415;28;20030;-74
2022/08/08 08:56:23;;;;;;;8.65;2.30;;;;;;;;;;5038605;28;20096;-75
2022/08/08 08:58:50;;;;;;;3.67;2.50;;;;;;;;;;5036669;28;20032;-74
2022/08/08 09:01:17;;;;;;;4.55;2.70;;;;;;;;;;5038593;28;20026;-74
2022/08/08 09:03:46;;;;;;;7.55;2.92;;;;;;;;;;5038610;28;20033;-74
2022/08/08 09:06:15;;;;;;;9.20;2.60;;;;;;;;;;5037619;28;20026;-77
2022/08/08 09:08:43;;;;;;;4.05;2.60;;;;;;;;;;5038705;28;20026;-74
2022/08/08 09:11:10;;;;;;;5.07;3.08;;;;;;;;;;5038312;28;20022;-74
2022/08/08 09:13:37;;;;;;;7.72;3.58;;;;;;;;;;5038616;28;20045;-74
2022/08/08 09:16:03;;;;;;;7.00;3.78;;;;;;;;;;5037477;28;20067;-74
2022/08/08 09:18:30;;;;;;;7.32;3.45;;;;;;;;;;5038384;28;20076;-74
2022/08/08 09:20:56;;;;;;;8.32;3.90;;;;;;;;;;5038285;28;20030;-74
2022/08/08 09:23:22;;;;;;;14.43;3.97;;;;;;;;;;5038291;28;20032;-74
2022/08/08 09:25:51;;;;;;;10.18;5.38;;;;;;;;;;5036970;28;20040;-74
2022/08/08 09:28:18;;;;;;;6.85;4.47;;;;;;;;;;5038275;28;20025;-73
2022/08/08 09:30:47;;;;;;;7.38;5.45;;;;;;;;;;5038035;28;20068;-74
2022/08/08 09:33:16;;;;;;;31.55;26.45;;;;;;;;;;5038321;28;20112;-74
2022/08/08 09:35:46;;;;;;;5.15;3.63;;;;;;;;;;5037821;28;20032;-74
2022/08/08 09:38:15;;;;;;;6.18;3.78;;;;;;;;;;5037885;28;20029;-74
2022/08/08 09:40:41;;;;;;;7.03;3.88;;;;;;;;;;5038100;28;20034;-74
2022/08/08 09:43:08;;;;;;;7.25;3.65;;;;;;;;;;5037636;28;20443;-75
2022/08/08 09:45:53;;;;;;;7.45;3.80;;;;;;;;;;5037909;28;20037;-75
2022/08/08 09:48:19;;;;;;;5.03;3.72;;;;;;;;;;5037754;28;20021;-75
2022/08/08 09:50:46;;;;;;;8.63;4.25;;;;;;;;;;5038210;28;20400;-75
2022/08/08 09:53:13;;;;;;;20.38;8.45;;;;;;;;;;5037665;28;20037;-75
2022/08/08 09:55:40;;;;;;;4.68;3.33;;;;;;;;;;5037611;28;20072;-74
2022/08/08 09:58:11;;;;;;;39.58;5.65;;;;;;;;;;5037578;28;20423;-75
2022/08/08 10:00:37;;;;;;;6.32;3.80;;;;;;;;;;5037696;28;20029;-75
2022/08/08 10:03:04;;;;;;;9.50;3.33;;;;;;;;;;5037318;28;20124;-76
2022/08/08 10:05:34;;;;;;;6.93;3.40;;;;;;;;;;5037418;28;20022;-76
2022/08/08 10:08:01;;;;;;;11.13;3.93;;;;;;;;;;5037383;28;20108;-75
2022/08/08 10:10:30;;;;;;;11.07;3.95;;;;;;;;;;5038091;28;20027;-76
2022/08/08 10:12:56;;;;;;;5.97;3.60;;;;;;;;;;5037510;28;20095;-76
2022/08/08 10:15:23;;;;;;;7.07;4.00;;;;;;;;;;5037312;28;20109;-75
2022/08/08 10:17:52;;;;;;;6.05;4.13;;;;;;;;;;5036964;28;20049;-75
2022/08/08 10:20:20;;;;;;;7.07;3.70;;;;;;;;;;5036146;28;20553;-75
2022/08/08 10:22:58;;;;;;;9.50;3.63;;;;;;;;;;5037021;28;20025;-75
2022/08/08 10:25:24;;;;;;;16.67;4.55;;;;;;;;;;5036176;28;20033;-75
2022/08/08 10:27:52;;;;;;;11.23;4.00;;;;;;;;;;5037307;28;20144;-75
2022/08/08 10:30:18;;;;;;;6.28;4.47;;;;;;;;;;5037163;28;20025;-75
2022/08/08 10:32:49;;;;;;;5.53;4.00;;;;;;;;;;5036199;28;20033;-75
2022/08/08 10:35:16;;;;;;;9.07;4.13;;;;;;;;;;5037238;28;20071;-76
2022/08/08 10:37:53;;;;;;;6.78;4.10;;;;;;;;;;5037183;28;20040;-76
2022/08/08 10:40:20;;;;;;;9.65;4.15;;;;;;;;;;5036890;28;20033;-75
2022/08/08 10:42:48;;;;;;;6.30;3.90;;;;;;;;;;5036822;28;20057;-75
2022/08/08 10:45:14;;;;;;;15.02;4.50;;;;;;;;;;5036887;28;20037;-75
2022/08/08 10:47:41;;;;;;;23.17;5.38;;;;;;;;;;5035875;28;20061;-75
2022/08/08 10:50:07;;;;;;;12.43;4.47;;;;;;;;;;5036952;28;20427;-76
2022/08/08 10:52:38;;;;;;;11.52;5.60;;;;;;;;;;5036978;28;20052;-75
2022/08/08 10:55:07;;;;;;;11.32;4.38;;;;;;;;;;5036916;28;20030;-75
2022/08/08 10:57:37;;;;;;;59.35;6.60;;;;;;;;;;5036972;28;20045;-75
2022/08/08 11:00:04;;;;;;;10.45;4.10;;;;;;;;;;5037048;28;20029;-75
2022/08/08 11:02:32;;;;;;;8.68;4.75;;;;;;;;;;5036430;28;20112;-75
2022/08/08 11:04:58;;;;;;;23.60;4.63;;;;;;;;;;5036920;28;20029;-74
2022/08/08 11:07:29;;;;;;;9.20;4.85;;;;;;;;;;5036728;28;20033;-75
2022/08/08 11:09:55;;;;;;;9.00;4.93;;;;;;;;;;5036675;28;20316;-75
2022/08/08 11:12:21;;;;;;;25.40;5.03;;;;;;;;;;5036715;28;20029;-75
2022/08/08 11:14:52;;;;;;;5.95;4.10;;;;;;;;;;5035802;28;20022;-75
2022/08/08 11:17:21;;;;;;;9.73;4.55;;;;;;;;;;5036673;28;20144;-75
2022/08/08 11:19:48;;;;;;;5.03;4.25;;;;;;;;;;5036585;28;20033;-75
2022/08/08 11:22:14;;;;;;;10.45;4.28;;;;;;;;;;5036461;28;20022;-75
2022/08/08 11:24:41;;;;;;;10.15;4.45;;;;;;;;;;5036530;28;20061;-77
2022/08/08 11:27:08;;;;;;;8.68;4.38;;;;;;;;;;5051569;28;20025;-78
2022/08/08 11:29:35;;;;;;;21.45;5.55;;;;;;;;;;5057733;28;20025;-75
2022/08/08 11:32:03;;;;;;;5.70;4.57;;;;;;;;;;5059152;28;20368;-75
2022/08/08 11:34:32;;;;;;;8.23;4.55;;;;;;;;;;5060351;28;20025;-75
2022/08/08 11:37:00;;;;;;;8.40;4.80;;;;;;;;;;5060208;28;20083;-75
2022/08/08 11:39:26;;;;;;;10.40;4.25;;;;;;;;;;5059895;28;20033;-75
2022/08/08 11:41:52;;;;;;;5.32;4.50;;;;;;;;;;5059743;28;20021;-75
2022/08/08 11:44:19;;;;;;;6.10;4.85;;;;;;;;;;5059859;28;20025;-75
2022/08/08 11:46:45;;;;;;;8.63;4.38;;;;;;;;;;5060224;28;20025;-75
2022/08/08 11:49:12;;;;;;;11.13;4.88;;;;;;;;;;5060003;28;20040;-75
2022/08/08 11:51:38;;;;;;;5.50;4.53;;;;;;;;;;5059782;28;20021;-75
2022/08/08 11:54:05;;;;;;;7.90;4.57;;;;;;;;;;5059834;28;20403;-75
2022/08/08 11:56:32;;;;;;;7.90;4.53;;;;;;;;;;5059676;28;20308;-75
2022/08/08 11:59:08;;;;;;;5.88;4.50;;;;;;;;;;5059916;28;20029;-75
2022/08/08 12:01:35;;;;;;;5.97;4.53;;;;;;;;;;5059622;28;20025;-75
2022/08/08 12:04:02;;;;;;;10.77;4.55;;;;;;;;;;5059674;28;20118;-75
2022/08/08 12:06:30;;;;;;;7.63;4.60;;;;;;;;;;5059597;28;20075;-75
2022/08/08 12:09:06;;;;;;;6.05;4.55;;;;;;;;;;5059444;28;20037;-75
2022/08/08 12:11:37;;;;;;;8.80;4.75;;;;;;;;;;5059730;28;20036;-75
2022/08/08 12:14:03;;;;;;;12.10;5.15;;;;;;;;;;5059713;28;20044;-75
2022/08/08 12:16:30;;;;;;;9.10;5.50;;;;;;;;;;5059582;28;20025;-75
2022/08/08 12:18:56;;;;;;;8.52;5.57;;;;;;;;;;5059382;28;20195;-75
2022/08/08 12:21:29;;;;;;;8.50;5.40;;;;;;;;;;5059374;28;20025;-75
2022/08/08 12:24:04;;;;;;;5.45;4.93;;;;;;;;;;5059181;28;20053;-75
2022/08/08 12:26:36;;;;;;;12.35;5.18;;;;;;;;;;5059388;28;20063;-75
2022/08/08 12:29:18;;;;;;;6.32;4.90;;;;;;;;;;5059422;28;20033;-75
2022/08/08 12:31:45;;;;;;;7.47;5.30;;;;;;;;;;5059460;28;20025;-75
2022/08/08 12:34:11;;;;;;;7.25;4.90;;;;;;;;;;5059045;28;20036;-75
2022/08/08 12:36:41;;;;;;;6.10;4.40;;;;;;;;;;5059249;28;20025;-75
2022/08/08 12:39:08;;;;;;;9.40;5.32;;;;;;;;;;5059108;28;20021;-75
2022/08/08 12:41:35;;;;;;;8.82;5.07;;;;;;;;;;5059160;28;20094;-75
2022/08/08 12:44:08;;;;;;;7.00;5.00;;;;;;;;;;5058838;28;20080;-75
2022/08/08 12:46:34;;;;;;;8.80;5.53;;;;;;;;;;5058987;28;20107;-75
2022/08/08 12:49:02;;;;;;;7.07;5.60;;;;;;;;;;5058849;28;20291;-75
2022/08/08 12:51:39;;;;;;;7.40;6.38;;;;;;;;;;5058411;28;20025;-75
2022/08/08 12:54:06;;;;;;;7.25;5.68;;;;;;;;;;5059319;28;20033;-75
2022/08/08 12:56:39;;;;;;;6.10;5.50;;;;;;;;;;5059139;28;20074;-75
2022/08/08 12:59:15;;;;;;;8.55;5.75;;;;;;;;;;5040581;28;20091;-75
2022/08/08 13:01:41;;;;;;;10.57;5.82;;;;;;;;;;5038780;28;20025;-75
2022/08/08 13:04:14;;;;;;;12.60;8.25;;;;;;;;;;5038859;28;20048;-75
2022/08/08 13:06:51;;;;;;;10.73;6.40;;;;;;;;;;5038793;28;20026;-75
2022/08/08 13:09:28;;;;;;;6.78;5.25;;;;;;;;;;5038524;28;20047;-75
2022/08/08 13:11:54;;;;;;;6.90;5.53;;;;;;;;;;5038451;28;20071;-75
2022/08/08 13:14:20;;;;;;;15.45;9.68;;;;;;;;;;5038490;28;20056;-75
2022/08/08 13:16:46;;;;;;;12.38;8.25;;;;;;;;;;5038473;28;20033;-75
2022/08/08 13:19:12;;;;;;;9.40;6.25;;;;;;;;;;5038534;28;20025;-76
2022/08/08 13:21:41;;;;;;;8.95;6.68;;;;;;;;;;5038290;28;20021;-76
2022/08/08 13:24:07;;;;;;;7.65;6.28;;;;;;;;;;5038329;28;20021;-75
2022/08/08 13:26:33;;;;;;;10.45;6.13;;;;;;;;;;5038191;28;20026;-75
2022/08/08 13:29:07;;;;;;;6.15;5.55;;;;;;;;;;5037889;28;20021;-75
2022/08/08 13:31:33;;;;;;;45.80;26.10;;;;;;;;;;5037953;28;20105;-75
2022/08/08 13:33:59;;;;;;;9.82;7.72;;;;;;;;;;5037922;28;20061;-75
2022/08/08 13:36:25;;;;;;;8.55;5.75;;;;;;;;;;5037964;28;20067;-76
2022/08/08 13:38:51;;;;;;;9.02;5.82;;;;;;;;;;5037676;28;20021;-75
2022/08/08 13:41:17;;;;;;;5.60;5.10;;;;;;;;;;5037788;28;20044;-75
2022/08/08 13:43:45;;;;;;;12.10;7.60;;;;;;;;;;5037530;28;20431;-75
2022/08/08 13:46:13;;;;;;;19.45;10.30;;;;;;;;;;5037871;28;20071;-75
2022/08/08 13:48:46;;;;;;;15.85;9.38;;;;;;;;;;5036695;28;20136;-75
2022/08/08 13:51:13;;;;;;;20.35;8.35;;;;;;;;;;5037649;28;20055;-75
2022/08/08 13:53:40;;;;;;;22.92;13.55;;;;;;;;;;5037290;28;20036;-75
2022/08/08 14:40:22;;;;;;;10.85;9.45;;;;;;;;;;5003185;28;20389;-75
2022/08/08 14:42:49;;;;;;;15.57;10.43;;;;;;;;;;4990491;28;20076;-76
2022/08/08 14:45:15;;;;;;;14.63;9.73;;;;;;;;;;5013566;28;20111;-76
2022/08/08 14:47:45;;;;;;;9.93;8.07;;;;;;;;;;4973959;28;20043;-75
2022/08/08 14:50:14;;;;;;;12.37;9.23;;;;;;;;;;4984850;28;20042;-76
2022/08/08 14:52:43;;;;;;;13.25;9.50;;;;;;;;;;4982968;28;20015;-76
2022/08/08 14:55:09;;;;;;;11.45;8.63;;;;;;;;;;4971136;28;20092;-76
2022/08/08 14:57:35;;;;;;;11.45;9.30;;;;;;;;;;4972243;28;20019;-77
2022/08/08 15:00:02;;;;;;;10.32;8.55;;;;;;;;;;4972093;28;20317;-76
2022/08/08 15:02:29;;;;;;;14.38;8.88;;;;;;;;;;4971989;28;20019;-76
2022/08/08 15:04:55;;;;;;;9.82;8.32;;;;;;;;;;4972041;28;20019;-77
2022/08/08 15:07:21;;;;;;;8.98;8.07;;;;;;;;;;4970930;28;20298;-76
2022/08/08 15:09:47;;;;;;;9.65;8.40;;;;;;;;;;4970999;28;20056;-76
2022/08/08 15:12:13;;;;;;;22.23;8.10;;;;;;;;;;4970801;28;20034;-76
2022/08/08 15:14:39;;;;;;;9.43;7.50;;;;;;;;;;4972057;28;20035;-76
2022/08/08 15:17:05;;;;;;;10.82;7.20;;;;;;;;;;4971587;28;20034;-76
2022/08/08 15:19:31;;;;;;;6.95;6.32;;;;;;;;;;4971756;28;20089;-76
2022/08/08 15:21:57;;;;;;;12.10;7.50;;;;;;;;;;4971821;28;20054;-76
2022/08/08 15:24:23;;;;;;;11.30;8.25;;;;;;;;;;4971577;28;20355;-76
2022/08/08 15:26:49;;;;;;;8.48;7.68;;;;;;;;;;4970596;28;20050;-76
2022/08/08 15:29:15;;;;;;;9.25;7.88;;;;;;;;;;4971594;28;20313;-76
2022/08/08 15:31:41;;;;;;;7.80;7.03;;;;;;;;;;4970460;28;20045;-76
2022/08/08 15:34:08;;;;;;;14.77;7.60;;;;;;;;;;4971703;28;20031;-76
2022/08/08 15:36:34;;;;;;;10.18;7.45;;;;;;;;;;4971466;28;20356;-78
2022/08/08 15:39:00;;;;;;;16.45;13.15;;;;;;;;;;4970069;28;20059;-76
2022/08/08 15:41:26;;;;;;;37.70;25.50;;;;;;;;;;4971451;28;20027;-76
2022/08/08 15:43:52;;;;;;;30.30;22.10;;;;;;;;;;4971338;28;20424;-76
2022/08/08 15:46:18;;;;;;;10.15;8.48;;;;;;;;;;4971380;28;20030;-76
2022/08/08 15:48:44;;;;;;;9.18;7.68;;;;;;;;;;4970253;28;20027;-76
2022/08/08 15:51:10;;;;;;;13.25;10.80;;;;;;;;;;4961108;28;20072;-76
2022/08/08 15:53:36;;;;;;;14.65;12.38;;;;;;;;;;4958374;28;20038;-76
2022/08/08 15:56:03;;;;;;;10.35;8.38;;;;;;;;;;4958543;28;20116;-76
2022/08/08 15:58:29;;;;;;;9.13;7.78;;;;;;;;;;4958007;28;20108;-76
2022/08/08 16:00:55;;;;;;;7.25;6.55;;;;;;;;;;4957255;28;20030;-76
2022/08/08 16:03:21;;;;;;;11.63;7.18;;;;;;;;;;4958280;28;20023;-76
2022/08/08 16:05:47;;;;;;;7.50;6.75;;;;;;;;;;4958270;29;20110;-76
2022/08/08 16:08:13;;;;;;;10.32;8.30;;;;;;;;;;4958014;28;20397;-76
2022/08/08 16:10:40;;;;;;;10.52;7.57;;;;;;;;;;4958182;28;20035;-76
2022/08/08 16:13:06;;;;;;;8.82;7.80;;;;;;;;;;4958030;28;20031;-76
2022/08/08 16:15:32;;;;;;;11.18;9.27;;;;;;;;;;4958308;28;20096;-76
2022/08/08 16:17:58;;;;;;;12.18;8.40;;;;;;;;;;4958133;29;20032;-76
2022/08/08 16:20:24;;;;;;;11.20;8.80;;;;;;;;;;4958064;28;20023;-76
2022/08/08 16:22:50;;;;;;;13.20;9.45;;;;;;;;;;4958036;28;20046;-75
2022/08/08 16:25:16;;;;;;;10.52;9.43;;;;;;;;;;4957772;28;20309;-76
2022/08/08 16:27:42;;;;;;;11.88;10.70;;;;;;;;;;4956839;28;20429;-76
2022/08/08 16:30:08;;;;;;;13.77;10.88;;;;;;;;;;4958060;28;20038;-76